createdAt,value
2022-11-10T00:00:52.776Z,46.13
2022-11-10T00:03:40.261Z,43.13
2022-11-10T00:06:26.410Z,43.90
2022-11-10T00:09:12.506Z,43.47
2022-11-10T00:11:58.690Z,45.83
2022-11-10T00:15:03.258Z,44.42
2022-11-10T00:17:49.105Z,43.85
2022-11-10T00:20:34.929Z,43.33
2022-11-10T00:23:21.272Z,44.63
2022-11-10T00:26:15.925Z,44.65
2022-11-10T00:29:01.890Z,43.03
2022-11-10T00:31:47.766Z,44.42
2022-11-10T00:34:34.055Z,43.70
2022-11-10T00:37:19.468Z,49.33
2022-11-10T00:40:06.042Z,49.95
2022-11-10T00:42:52.547Z,62.13
2022-11-10T00:45:42.268Z,61.78
2022-11-10T00:48:28.237Z,64.05
2022-11-10T00:51:24.958Z,55.15
2022-11-10T00:54:10.903Z,56.50
2022-11-10T00:56:56.558Z,52.58
2022-11-10T00:59:42.625Z,50.40
2022-11-10T01:02:29.122Z,49.88
2022-11-10T01:05:14.743Z,45.63
2022-11-10T01:08:00.858Z,47.42
2022-11-10T01:10:46.989Z,46.70
2022-11-10T01:13:33.222Z,48.92
2022-11-10T01:16:31.653Z,49.58
2022-11-10T01:19:17.420Z,49.45
2022-11-10T01:22:03.291Z,49.95
2022-11-10T01:24:49.379Z,49.35
2022-11-10T01:27:35.524Z,51.70
2022-11-10T01:30:21.262Z,52.42
2022-11-10T01:33:07.229Z,51.78
2022-11-10T01:35:53.354Z,50.08
2022-11-10T01:38:41.845Z,52.53
2022-11-10T01:41:27.466Z,51.40
2022-11-10T01:44:14.799Z,47.85
2022-11-10T01:47:00.572Z,46.08
2022-11-10T01:49:46.670Z,49.55
2022-11-10T01:52:33.554Z,48.20
2022-11-10T01:55:20.694Z,46.85
2022-11-10T01:58:06.915Z,45.53
2022-11-10T02:00:54.121Z,46.22
2022-11-10T02:03:49.584Z,45.58
2022-11-10T02:06:39.836Z,43.05
2022-11-10T02:09:25.813Z,44.78
2022-11-10T02:12:12.584Z,45.55
2022-11-10T02:14:58.296Z,44.53
2022-11-10T02:17:46.977Z,45.35
2022-11-10T02:20:33.726Z,46.50
2022-11-10T02:23:32.155Z,48.83
2022-11-10T02:26:24.375Z,51.33
2022-11-10T02:29:10.769Z,55.45
2022-11-10T02:31:56.621Z,54.80
2022-11-10T02:34:42.979Z,55.25
2022-11-10T02:37:28.934Z,56.03
2022-11-10T02:40:14.762Z,55.78
2022-11-10T02:43:00.660Z,54.80
2022-11-10T02:45:46.647Z,52.15
2022-11-10T02:48:32.594Z,49.10
2022-11-10T02:51:18.599Z,46.83
2022-11-10T02:54:06.165Z,45.72
2022-11-10T02:56:51.807Z,43.47
2022-11-10T02:59:37.880Z,43.20
2022-11-10T03:02:25.482Z,42.53
2022-11-10T03:05:14.122Z,41.95
2022-11-10T03:08:02.397Z,40.50
2022-11-10T03:10:48.138Z,41.45
2022-11-10T03:13:51.573Z,43.40
2022-11-10T03:16:40.105Z,39.00
2022-11-10T03:19:25.952Z,39.05
2022-11-10T03:22:11.771Z,38.33
2022-11-10T03:24:57.592Z,38.80
2022-11-10T03:27:43.566Z,38.53
2022-11-10T03:30:30.866Z,38.33
2022-11-10T03:33:17.139Z,37.65
2022-11-10T03:36:03.235Z,36.92
2022-11-10T03:38:49.322Z,36.97
2022-11-10T03:41:35.178Z,38.30
2022-11-10T03:44:21.067Z,37.35
2022-11-10T03:47:06.880Z,36.65
2022-11-10T03:49:52.754Z,36.60
2022-11-10T03:52:43.812Z,39.33
2022-11-10T03:55:29.812Z,39.83
2022-11-10T03:58:15.717Z,34.85
2022-11-10T04:01:01.613Z,38.17
2022-11-10T04:03:51.301Z,37.55
2022-11-10T04:06:56.196Z,37.90
2022-11-10T04:09:42.266Z,39.42
2022-11-10T04:12:46.704Z,38.33
2022-11-10T04:15:44.553Z,37.92
2022-11-10T04:18:31.035Z,36.13
2022-11-10T04:21:16.676Z,37.72
2022-11-10T04:24:02.465Z,39.17
2022-11-10T04:26:49.066Z,39.53
2022-11-10T04:29:35.014Z,40.17
2022-11-10T04:32:20.538Z,40.00
2022-11-10T04:35:06.932Z,39.05
2022-11-10T04:37:52.718Z,37.38
2022-11-10T04:40:38.751Z,38.22
2022-11-10T04:43:24.915Z,40.22
2022-11-10T04:46:35.710Z,38.30
2022-11-10T04:49:21.156Z,41.47
2022-11-10T04:52:07.151Z,37.38
2022-11-10T04:54:52.819Z,38.72
2022-11-10T04:57:38.865Z,39.40
2022-11-10T05:00:24.821Z,39.53
2022-11-10T05:03:11.950Z,39.22
2022-11-10T05:05:57.832Z,39.78
2022-11-10T05:08:44.741Z,39.22
2022-11-10T05:11:30.570Z,41.33
2022-11-10T05:14:16.457Z,40.33
2022-11-10T05:17:02.325Z,40.42
2022-11-10T05:19:48.287Z,41.35
2022-11-10T05:22:34.229Z,45.15
2022-11-10T05:25:20.047Z,45.55
2022-11-10T05:28:08.654Z,46.78
2022-11-10T05:30:54.379Z,47.38
2022-11-10T05:33:41.327Z,43.47
2022-11-10T05:36:27.156Z,40.38
2022-11-10T05:39:13.090Z,41.70
2022-11-10T05:41:58.934Z,41.42
2022-11-10T05:44:44.884Z,40.90
2022-11-10T05:47:31.196Z,43.28
2022-11-10T05:50:18.142Z,42.35
2022-11-10T05:53:03.931Z,41.97
2022-11-10T05:55:49.883Z,41.70
2022-11-10T05:58:35.941Z,42.00
2022-11-10T06:01:21.743Z,44.70
2022-11-10T06:04:07.720Z,43.35
2022-11-10T06:06:53.579Z,42.78
2022-11-10T06:09:39.552Z,43.28
2022-11-10T06:12:25.821Z,42.97
2022-11-10T06:15:12.497Z,41.58
2022-11-10T06:17:58.819Z,43.65
2022-11-10T06:20:46.438Z,42.53
2022-11-10T06:23:32.385Z,41.40
2022-11-10T06:26:18.294Z,41.63
2022-11-10T06:29:04.314Z,40.10
2022-11-10T06:31:51.027Z,40.08
2022-11-10T06:34:36.922Z,39.25
2022-11-10T06:37:22.834Z,35.47
2022-11-10T06:40:10.906Z,35.88
2022-11-10T06:42:57.102Z,34.58
2022-11-10T06:45:42.705Z,34.17
2022-11-10T06:48:28.716Z,33.08
2022-11-10T06:51:14.730Z,33.35
2022-11-10T06:54:00.639Z,30.42
2022-11-10T06:56:46.510Z,32.42
2022-11-10T06:59:32.420Z,30.20
2022-11-10T07:02:18.411Z,32.08
2022-11-10T07:05:06.779Z,32.05
2022-11-10T07:07:52.715Z,30.48
2022-11-10T07:10:38.567Z,30.35
2022-11-10T07:13:24.779Z,29.02
2022-11-10T07:16:11.716Z,31.10
2022-11-10T07:18:57.457Z,29.02
2022-11-10T07:21:43.226Z,29.42
2022-11-10T07:24:30.500Z,29.63
2022-11-10T07:27:16.599Z,30.55
2022-11-10T07:30:02.658Z,29.80
2022-11-10T07:32:48.339Z,29.45
2022-11-10T07:35:34.880Z,30.27
2022-11-10T07:38:20.723Z,28.88
2022-11-10T07:41:06.528Z,29.58
2022-11-10T07:43:52.327Z,27.17
2022-11-10T07:46:38.264Z,29.42
2022-11-10T07:49:24.198Z,31.60
2022-11-10T07:52:10.119Z,30.50
2022-11-10T07:54:55.947Z,30.88
2022-11-10T07:57:41.922Z,29.17
2022-11-10T08:00:28.350Z,31.48
2022-11-10T08:03:17.380Z,30.92
2022-11-10T08:06:03.438Z,31.77
2022-11-10T08:08:49.319Z,30.65
2022-11-10T08:11:35.327Z,29.05
2022-11-10T08:14:21.069Z,28.35
2022-11-10T08:17:07.038Z,30.55
2022-11-10T08:19:54.339Z,30.73
2022-11-10T08:22:40.494Z,30.67
2022-11-10T08:25:34.175Z,30.90
2022-11-10T08:28:21.210Z,27.35
2022-11-10T08:31:06.938Z,28.27
2022-11-10T08:33:52.598Z,25.92
2022-11-10T08:36:38.786Z,29.90
2022-11-10T08:39:38.636Z,26.95
2022-11-10T08:42:25.405Z,26.05
2022-11-10T08:45:11.886Z,26.88
2022-11-10T08:48:03.441Z,25.00
2022-11-10T08:50:50.033Z,23.58
2022-11-10T08:53:35.603Z,25.00
2022-11-10T08:56:21.624Z,22.65
2022-11-10T08:59:07.248Z,20.08
2022-11-10T09:01:53.240Z,19.25
2022-11-10T09:04:39.317Z,19.10
2022-11-10T09:07:25.095Z,19.20
2022-11-10T09:10:13.580Z,19.50
2022-11-10T09:13:03.148Z,18.42
2022-11-10T09:15:48.982Z,20.15
2022-11-10T09:18:34.871Z,21.00
2022-11-10T09:21:20.843Z,22.73
2022-11-10T09:24:07.244Z,20.63
2022-11-10T09:26:53.336Z,26.25
2022-11-10T09:29:39.425Z,26.20
2022-11-10T09:32:24.969Z,25.15
2022-11-10T09:35:10.878Z,20.83
2022-11-10T09:37:59.330Z,20.48
2022-11-10T09:41:04.492Z,22.73
2022-11-10T09:44:05.911Z,25.23
2022-11-10T09:47:00.918Z,24.92
2022-11-10T09:49:57.024Z,30.77
2022-11-10T09:52:44.291Z,27.13
2022-11-10T09:55:37.784Z,37.50
2022-11-10T09:58:30.325Z,28.77
2022-11-10T10:01:45.154Z,26.40
2022-11-10T10:04:57.068Z,26.35
2022-11-10T10:08:01.333Z,26.23
2022-11-10T10:11:11.862Z,27.38
2022-11-10T10:14:21.880Z,25.80
2022-11-10T10:17:27.278Z,27.02
2022-11-10T10:20:29.155Z,26.80
2022-11-10T10:26:56.847Z,25.85
2022-11-10T10:29:52.811Z,27.55
2022-11-10T10:32:38.549Z,24.48
2022-11-10T10:35:25.171Z,28.42
2022-11-10T10:38:20.998Z,30.27
2022-11-10T10:41:23.827Z,29.30
2022-11-10T10:44:13.206Z,27.92
2022-11-10T10:47:01.250Z,26.00
2022-11-10T10:49:47.228Z,23.40
2022-11-10T10:52:33.251Z,23.35
2022-11-10T10:55:19.357Z,26.10
2022-11-10T10:58:19.405Z,24.10
2022-11-10T11:01:18.380Z,23.90
2022-11-10T11:04:36.391Z,26.48
2022-11-10T11:07:25.100Z,26.83
2022-11-10T11:10:23.540Z,25.48
2022-11-10T11:13:22.795Z,27.00
2022-11-10T11:16:12.321Z,27.25
2022-11-10T11:18:58.727Z,22.20
2022-11-10T11:22:03.678Z,23.27
2022-11-10T11:25:14.472Z,26.17
2022-11-10T11:28:25.392Z,25.25
2022-11-10T11:31:57.205Z,25.83
2022-11-10T11:35:04.637Z,25.70
2022-11-10T11:38:13.974Z,25.00
2022-11-10T11:41:21.665Z,28.25
2022-11-10T11:44:19.856Z,26.85
2022-11-10T11:47:42.347Z,24.63
2022-11-10T11:50:43.984Z,24.35
2022-11-10T11:54:17.925Z,21.58
2022-11-10T11:57:39.874Z,19.80
2022-11-10T12:00:26.300Z,19.70
2022-11-10T12:03:33.926Z,18.33
2022-11-10T12:06:25.923Z,17.63
2022-11-10T12:09:26.046Z,20.38
2022-11-10T12:12:53.479Z,19.90
2022-11-10T12:16:00.946Z,19.77
2022-11-10T12:18:55.699Z,19.15
2022-11-10T12:22:24.397Z,19.30
2022-11-10T12:25:21.621Z,20.65
2022-11-10T12:28:22.027Z,18.52
2022-11-10T12:31:15.492Z,18.35
2022-11-10T12:34:28.846Z,19.02
2022-11-10T12:37:27.871Z,20.58
2022-11-10T12:40:21.741Z,19.70
2022-11-10T12:43:33.863Z,20.83
2022-11-10T12:46:19.966Z,19.77
2022-11-10T12:49:19.547Z,20.30
2022-11-10T12:52:15.638Z,21.60
2022-11-10T12:55:01.898Z,20.60
2022-11-10T12:57:48.622Z,19.60
2022-11-10T13:00:55.575Z,21.00
2022-11-10T13:03:55.572Z,20.45
2022-11-10T13:06:55.444Z,21.15
2022-11-10T13:09:44.599Z,21.27
2022-11-10T13:12:30.357Z,19.27
2022-11-10T13:15:38.118Z,20.63
2022-11-10T13:18:44.132Z,21.13
2022-11-10T13:21:51.943Z,21.73
2022-11-10T13:24:43.127Z,20.80
2022-11-10T13:27:38.219Z,22.48
2022-11-10T13:30:50.551Z,23.85
2022-11-10T13:33:38.280Z,24.70
2022-11-10T13:36:43.797Z,25.40
2022-11-10T13:39:33.254Z,26.60
2022-11-10T13:42:24.476Z,25.13
2022-11-10T13:45:29.293Z,26.30
2022-11-10T13:48:18.439Z,24.90
2022-11-10T13:51:16.362Z,27.08
2022-11-10T13:54:36.137Z,26.35
2022-11-10T14:00:16.997Z,25.63
2022-11-10T14:03:07.752Z,27.23
2022-11-10T14:06:02.566Z,27.00
2022-11-10T14:09:25.719Z,26.15
2022-11-10T14:12:34.157Z,26.20
2022-11-10T14:15:24.105Z,25.85
2022-11-10T14:18:41.061Z,26.00
2022-11-10T14:21:42.469Z,26.10
2022-11-10T14:24:49.478Z,26.23
2022-11-10T14:27:51.528Z,26.08
2022-11-10T14:30:51.512Z,26.48
2022-11-10T14:33:37.713Z,25.77
2022-11-10T14:36:25.217Z,24.15
2022-11-10T14:39:16.145Z,25.90
2022-11-10T14:42:05.813Z,25.13
2022-11-10T14:45:08.841Z,24.63
2022-11-10T14:47:57.288Z,24.05
2022-11-10T14:50:43.378Z,24.80
2022-11-10T14:53:38.506Z,23.60
2022-11-10T14:56:32.083Z,25.92
2022-11-10T14:59:20.392Z,25.17
2022-11-10T15:02:16.179Z,24.50
2022-11-10T15:05:03.970Z,23.83
2022-11-10T15:07:54.081Z,24.10
2022-11-10T15:10:44.692Z,25.73
2022-11-10T15:13:33.469Z,23.48
2022-11-10T15:16:32.816Z,22.87
2022-11-10T15:19:30.469Z,22.70
2022-11-10T15:22:29.459Z,25.02
2022-11-10T15:25:18.571Z,27.25
2022-11-10T15:28:18.465Z,41.53
2022-11-10T15:31:07.851Z,26.52
2022-11-10T15:33:56.799Z,50.45
2022-11-10T15:36:42.287Z,54.40
2022-11-10T15:39:30.546Z,36.88
2022-11-10T15:42:22.760Z,31.20
2022-11-10T15:45:09.071Z,29.27
2022-11-10T15:47:55.665Z,28.05
2022-11-10T15:50:43.477Z,35.67
2022-11-10T15:53:37.425Z,44.88
2022-11-10T15:56:26.937Z,34.10
2022-11-10T15:59:12.784Z,30.48
2022-11-10T16:01:59.217Z,28.27
2022-11-10T16:04:45.384Z,27.50
2022-11-10T16:07:30.891Z,28.05
2022-11-10T16:10:16.987Z,28.02
2022-11-10T16:13:03.543Z,28.15
2022-11-10T16:15:49.441Z,27.73
2022-11-10T16:18:35.962Z,27.67
2022-11-10T16:21:26.054Z,28.23
2022-11-10T16:24:24.608Z,30.77
2022-11-10T16:27:14.717Z,25.58
2022-11-10T16:32:46.220Z,24.80
2022-11-10T16:35:32.459Z,24.67
2022-11-10T16:38:31.634Z,27.17
2022-11-10T16:41:17.677Z,27.92
2022-11-10T16:44:05.634Z,28.92
2022-11-10T16:46:56.039Z,34.53
2022-11-10T16:49:44.343Z,40.75
2022-11-10T16:52:30.510Z,38.65
2022-11-10T16:55:16.497Z,32.38
2022-11-10T16:58:02.389Z,30.70
2022-11-10T17:00:48.878Z,32.60
2022-11-10T17:03:40.240Z,32.25
2022-11-10T17:06:28.803Z,31.23
2022-11-10T17:09:19.154Z,32.03
2022-11-10T17:12:05.128Z,29.02
2022-11-10T17:14:51.326Z,27.85
2022-11-10T17:17:37.629Z,28.35
2022-11-10T17:20:28.906Z,27.33
2022-11-10T17:23:17.467Z,28.27
2022-11-10T17:26:03.727Z,28.67
2022-11-10T17:28:49.535Z,28.27
2022-11-10T17:31:35.509Z,27.80
2022-11-10T17:34:22.074Z,27.65
2022-11-10T17:37:12.494Z,27.25
2022-11-10T17:39:58.894Z,25.50
2022-11-10T17:42:44.960Z,25.67
2022-11-10T17:45:30.704Z,24.88
2022-11-10T17:48:16.669Z,25.77
2022-11-10T17:51:02.330Z,25.45
2022-11-10T17:53:50.611Z,23.65
2022-11-10T17:56:36.652Z,23.52
2022-11-10T17:59:22.842Z,25.42
2022-11-10T18:02:11.011Z,25.83
2022-11-10T18:04:56.855Z,25.33
2022-11-10T18:07:43.431Z,24.02
2022-11-10T18:10:29.458Z,24.15
2022-11-10T18:13:16.022Z,23.33
2022-11-10T18:16:01.616Z,22.88
2022-11-10T18:18:47.739Z,23.85
2022-11-10T18:21:33.564Z,22.60
2022-11-10T18:24:20.602Z,25.15
2022-11-10T18:27:06.639Z,24.25
2022-11-10T18:29:52.453Z,25.45
2022-11-10T18:32:38.434Z,21.95
2022-11-10T18:35:24.327Z,21.98
2022-11-10T18:38:13.760Z,21.92
2022-11-10T18:41:25.752Z,22.40
2022-11-10T18:44:11.536Z,22.30
2022-11-10T18:46:57.669Z,21.58
2022-11-10T18:49:43.499Z,22.38
2022-11-10T18:52:29.568Z,25.42
2022-11-10T18:55:15.439Z,19.50
2022-11-10T18:58:01.946Z,21.48
2022-11-10T19:00:48.332Z,21.38
2022-11-10T19:03:35.653Z,21.58
2022-11-10T19:06:21.374Z,20.52
2022-11-10T19:09:07.488Z,21.75
2022-11-10T19:11:53.474Z,20.85
2022-11-10T19:14:41.097Z,20.63
2022-11-10T19:17:26.961Z,21.35
2022-11-10T19:20:15.630Z,20.65
2022-11-10T19:23:01.743Z,20.63
2022-11-10T19:25:47.518Z,20.95
2022-11-10T19:28:33.330Z,21.08
2022-11-10T19:31:22.672Z,21.40
2022-11-10T19:34:08.376Z,19.92
2022-11-10T19:36:54.390Z,19.10
2022-11-10T19:39:40.328Z,20.88
2022-11-10T19:42:26.257Z,20.85
2022-11-10T19:45:12.269Z,20.73
2022-11-10T19:47:59.719Z,20.15
2022-11-10T19:50:53.040Z,20.10
2022-11-10T19:53:43.829Z,19.10
2022-11-10T19:56:32.249Z,21.50
2022-11-10T19:59:19.971Z,19.00
2022-11-10T20:02:06.444Z,19.55
2022-11-10T20:05:10.882Z,21.05
2022-11-10T20:08:12.088Z,19.50
2022-11-10T20:11:12.817Z,20.50
2022-11-10T20:14:00.632Z,19.27
2022-11-10T20:16:46.514Z,20.10
2022-11-10T20:19:40.774Z,20.30
2022-11-10T20:22:27.232Z,20.65
2022-11-10T20:25:13.520Z,19.23
2022-11-10T20:28:01.406Z,20.77
2022-11-10T20:30:47.690Z,20.83
2022-11-10T20:33:33.987Z,19.15
2022-11-10T20:36:31.048Z,20.00
2022-11-10T20:39:17.747Z,19.92
2022-11-10T20:42:04.019Z,20.45
2022-11-10T20:44:49.732Z,19.65
2022-11-10T20:47:36.036Z,20.95
2022-11-10T20:50:25.424Z,20.92
2022-11-10T20:53:11.551Z,21.20
2022-11-10T20:56:02.029Z,21.17
2022-11-10T20:58:49.122Z,20.38
2022-11-10T21:01:35.427Z,20.70
2022-11-10T21:04:21.835Z,20.05
2022-11-10T21:07:07.896Z,20.33
2022-11-10T21:09:56.674Z,19.60
2022-11-10T21:12:51.346Z,19.10
2022-11-10T21:15:39.425Z,19.50
2022-11-10T21:18:27.699Z,20.23
2022-11-10T21:21:22.899Z,18.85
2022-11-10T21:24:10.068Z,20.25
2022-11-10T21:26:57.188Z,18.98
2022-11-10T21:29:43.397Z,20.42
2022-11-10T21:32:29.451Z,19.73
2022-11-10T21:35:17.066Z,19.50
2022-11-10T21:38:04.653Z,20.10
2022-11-10T21:40:50.135Z,20.50
2022-11-10T21:43:38.678Z,20.23
2022-11-10T21:46:24.712Z,20.92
2022-11-10T21:49:10.602Z,19.65
2022-11-10T21:51:56.234Z,20.60
2022-11-10T21:54:45.350Z,19.92
2022-11-10T21:57:31.333Z,20.42
2022-11-10T22:00:18.482Z,20.90
2022-11-10T22:03:05.744Z,21.13
2022-11-10T22:05:51.776Z,21.95
2022-11-10T22:08:39.133Z,22.33
2022-11-10T22:11:43.503Z,22.55
2022-11-10T22:14:47.529Z,21.73
2022-11-10T22:17:51.982Z,23.15
2022-11-10T22:20:37.954Z,22.23
2022-11-10T22:23:44.072Z,21.38
2022-11-10T22:26:30.146Z,23.25
2022-11-10T22:29:16.246Z,22.58
2022-11-10T22:32:02.622Z,21.92
2022-11-10T22:34:48.579Z,22.60
2022-11-10T22:37:34.543Z,23.23
2022-11-10T22:40:38.977Z,23.00
2022-11-10T22:43:43.430Z,22.27
2022-11-10T22:46:34.286Z,23.20
2022-11-10T22:49:22.187Z,23.77
2022-11-10T22:52:07.785Z,24.73
2022-11-10T22:54:53.596Z,22.05
2022-11-10T22:57:39.570Z,22.23
2022-11-10T23:00:25.483Z,22.63
2022-11-10T23:03:13.102Z,24.70
2022-11-10T23:05:59.231Z,27.13
2022-11-10T23:08:45.117Z,28.65
2022-11-10T23:11:32.450Z,30.38
2022-11-10T23:14:18.365Z,25.67
2022-11-10T23:17:04.236Z,26.48
2022-11-10T23:19:50.187Z,24.35
2022-11-10T23:22:35.897Z,23.75
2022-11-10T23:25:22.198Z,22.35
2022-11-10T23:28:08.452Z,23.20
2022-11-10T23:30:55.249Z,23.38
2022-11-10T23:33:43.239Z,22.45
2022-11-10T23:36:29.382Z,22.67
2022-11-10T23:39:14.968Z,23.55
2022-11-10T23:42:00.875Z,23.90
2022-11-10T23:44:46.641Z,24.30
2022-11-10T23:47:32.561Z,23.25
2022-11-10T23:50:18.562Z,24.08
2022-11-10T23:53:04.405Z,23.40
2022-11-10T23:55:59.115Z,24.00
2022-11-10T23:58:45.123Z,24.35
